M I D A S
Marine Information and Data Acquisition System
Tripno 186 of the Zeeleeuw from 2001-12-17 07:15:00 to 2001-12-17 13:50:14
Back to CruiseResearch ActivitiesStationsMapUnderway DataData graphs

EquipmentUnitsComment
TimeDGPSUTC
LatitudeDGPSDM.mWGS84
LongitudeDGPSDM.mWGS84
HeadingGyrodeg 
SOGDGPSknotsSpeed over ground
COGDGPSdegCourse over ground
DepthEcho soundermeters200 kHz
Missing or incorrect values are displayed as -999
Navigation data collected by the RV Zeeleeuw from 2001-12-17 07:15:00 to 2001-12-17 13:50:14
Time Latitude Longitude Heading SOG COG Depth
2001-12-17 07:49:02 51°13.687 2°55.905   0.1 332.9 5.7
2001-12-17 07:50:01 51°13.687 2°55.905 359.8   335.9 5.6
2001-12-17 07:51:02 51°13.688 2°55.904 359.8   40.2 5.7
2001-12-17 07:52:02 51°13.688 2°55.904 359.7   55 5.7
2001-12-17 07:53:01 51°13.689 2°55.905 103   52.3 5.7
2001-12-17 07:54:01 51°13.689 2°55.905 139   64.8 5.7
2001-12-17 07:55:02 51°13.689 2°55.905 138.8   170.6 5.7
2001-12-17 07:56:01 51°13.689 2°55.904 138.7   293.2 5.6
2001-12-17 07:57:01 51°13.688 2°55.905 138.3   234.5 5.7
2001-12-17 07:58:01 51°13.688 2°55.905 138   263.5 5.7
2001-12-17 07:59:02 51°13.688 2°55.905 137.7   356.5 5.7
2001-12-17 08:00:01 51°13.688 2°55.905 137.3   114 5.7
2001-12-17 08:01:01 51°13.688 2°55.904 137   105.2 5.7
2001-12-17 08:02:02 51°13.688 2°55.904 136.5   142.6 5.7
2001-12-17 08:03:02 51°13.688 2°55.905 136.2   278.1 5.7
2001-12-17 08:04:02 51°13.688 2°55.905 135.8   192.7 5.7
2001-12-17 08:05:01 51°13.688 2°55.904 135.3   301.4 5.7
2001-12-17 08:06:02 51°13.689 2°55.904 135   124.4 5.7
2001-12-17 08:07:01 51°13.689 2°55.904 134.7   324.5 5.7
2001-12-17 08:08:02 51°13.689 2°55.904 134.2   43 5.7
2001-12-17 08:09:02 51°13.689 2°55.904 133.8   139 5.7
2001-12-17 08:10:01 51°13.689 2°55.904 133.3   316.5 5.7
2001-12-17 08:11:02 51°13.689 2°55.904 132.8 0.1 259.6 5.7
2001-12-17 08:12:02 51°13.688 2°55.904 130.2 0.1 99.4 5.8
2001-12-17 08:13:01 51°13.688 2°55.904 123.2   195.8 5.7
2001-12-17 08:14:02 51°13.688 2°55.904 118.3 0.1 214.1 5.8
2001-12-17 08:15:02 51°13.687 2°55.904 113 0.1 164 6
2001-12-17 08:16:02 51°13.687 2°55.904 108.3   216.7 6.1
2001-12-17 08:17:03 51°13.691 2°55.886 103.8 1.5 286.2 -999
2001-12-17 08:18:02 51°13.701 2°55.818 93.5 2.9 279.6 -999
2001-12-17 08:19:02 51°13.704 2°55.751 77.7 2.1 271.5 12.1
2001-12-17 08:20:02 51°13.708 2°55.725 34.7 1.9 21.4 10.8
2001-12-17 08:21:02 51°13.79 2°55.676 330.2 5.9 327.8 9.2
2001-12-17 08:22:02 51°13.873 2°55.602 336.2 5.7 334.4 8.9
2001-12-17 08:23:02 51°13.959 2°55.54 337 5.7 335.5 8.8
2001-12-17 08:24:02 51°14.045 2°55.48 337.7 5.6 336.2 8.8
2001-12-17 08:25:02 51°14.129 2°55.415 334.2 5.6 333 8.7
2001-12-17 08:26:02 51°14.209 2°55.339 323.8 5.9 324.2 8.8
2001-12-17 08:27:02 51°14.297 2°55.196 311.5 8.5 310.7 8.9
2001-12-17 08:28:01 51°14.403 2°54.977 306.7 12.2 305.4 8.8
2001-12-17 08:29:02 51°14.417 2°54.637 263.7 13.3 263.7 8.5
2001-12-17 08:30:02 51°14.323 2°54.309 246.8 13.7 245.5 -999
2001-12-17 08:31:02 51°14.226 2°53.979 244.2 13.8 243.6 7.5
2001-12-17 08:32:02 51°14.122 2°53.65 243.2 14 242.1 7.7
2001-12-17 08:33:02 51°14.011 2°53.318 243 14.3 241.9 7.9
2001-12-17 08:34:02 51°13.898 2°52.979 243 14.6 242.1 8.4
2001-12-17 08:35:02 51°13.784 2°52.636 243.2 14.7 242.1 8.7
2001-12-17 08:36:01 51°13.67 2°52.294 243 14.9 242 8.9
2001-12-17 08:37:01 51°13.553 2°51.943 242.7 15 242 9.1
2001-12-17 08:38:02 51°13.436 2°51.584 243 15 242.6 9.2
2001-12-17 08:39:02 51°13.32 2°51.231 243.2 15 242 9.4
2001-12-17 08:40:02 51°13.203 2°50.88 243.2 15 242.4 9.3
2001-12-17 08:41:02 51°13.087 2°50.529 243.2 15 242.2 9.6
2001-12-17 08:42:02 51°12.97 2°50.177 243.2 15 242.2 9.6
2001-12-17 08:43:02 51°12.854 2°49.823 243.3 15.1 242.5 10.1
2001-12-17 08:44:02 51°12.737 2°49.469 243.3 15.1 242.4 10.2
2001-12-17 08:45:02 51°12.621 2°49.115 243.7 15.1 242.4 10.5
2001-12-17 08:46:01 51°12.509 2°48.764 245.2 15.1 244.6 10.7
2001-12-17 08:47:02 51°12.396 2°48.397 244.7 15.2 243.8 10.8
2001-12-17 08:48:01 51°12.286 2°48.039 245 15.3 243.9 11.1
2001-12-17 08:49:02 51°12.172 2°47.673 245.3 15.2 243.9 11.2
2001-12-17 08:50:02 51°12.063 2°47.312 248 15.1 245.2 11.4
2001-12-17 08:51:02 51°11.968 2°46.944 248.7 15.1 247 11.4
2001-12-17 08:52:02 51°11.872 2°46.574 249.5 15.1 247.8 11.6
2001-12-17 08:53:02 51°11.776 2°46.204 249.2 15.1 247.3 11.6
2001-12-17 08:54:02 51°11.679 2°45.834 249.2 15.1 247.4 11.6
2001-12-17 08:55:02 51°11.582 2°45.464 248.7 15.1 247.1 11.6
2001-12-17 08:56:02 51°11.485 2°45.093 248.7 15.1 247.3 11.5
2001-12-17 08:57:02 51°11.387 2°44.724 249 15.1 247.3 11.4
2001-12-17 08:58:02 51°11.289 2°44.356 248.5 15.1 246.8 11.3
2001-12-17 08:59:02 51°11.191 2°43.989 249.3 15.1 246.9 11.3
2001-12-17 09:00:02 51°11.093 2°43.621 248.8 15 246.8 11.2
2001-12-17 09:01:02 51°10.993 2°43.253 249.7 15.1 246.9 11.1
2001-12-17 09:02:02 51°10.893 2°42.884 249.2 15.1 246.8 11
2001-12-17 09:03:02 51°10.799 2°42.512 251.5 15.2 248.2 11
2001-12-17 09:04:02 51°10.705 2°42.14 251.3 15.1 248.1 10.8
2001-12-17 09:05:02 51°10.612 2°41.77 250.8 15.1 247.9 10.8
2001-12-17 09:06:01 51°10.519 2°41.406 250.8 15.1 247.5 10.7
2001-12-17 09:07:02 51°10.422 2°41.031 251 15 247.2 10.8
2001-12-17 09:08:02 51°10.328 2°40.664 251 14.9 247.6 10.8
2001-12-17 09:09:02 51°10.234 2°40.298 251.5 14.9 248 10.9
2001-12-17 09:10:02 51°10.139 2°39.933 251.2 14.9 247.4 11
2001-12-17 09:11:02 51°10.044 2°39.57 251.2 14.9 247.8 10.9
2001-12-17 09:12:02 51°9.949 2°39.208 251.2 14.9 246.7 11.2
2001-12-17 09:13:01 51°9.864 2°38.846 253.3 14.8 250.2 11.5
2001-12-17 09:14:02 51°9.776 2°38.472 253.2 14.8 249.4 12
2001-12-17 09:15:02 51°9.69 2°38.105 252.7 14.8 249.9 12.3
2001-12-17 09:16:02 51°9.603 2°37.737 252.8 14.8 249.8 12.9
2001-12-17 09:17:02 51°9.522 2°37.365 256.5 14.9 253.3 13.6
2001-12-17 09:18:02 51°9.448 2°36.988 256 14.9 253.3 14.6
2001-12-17 09:19:02 51°9.373 2°36.61 255.3 14.9 252.6 14.9
2001-12-17 09:20:01 51°9.301 2°36.263 264.2 11.5 257 15.2
2001-12-17 09:21:02 51°9.322 2°36.077 321.8 5.4 301.6 15.8
2001-12-17 09:22:02 51°9.351 2°36.02 11.7 1.4 257.2 15.9
2001-12-17 09:23:03 51°9.34 2°35.99 39.3 0.6 275.3 -999
2001-12-17 09:24:02 51°9.342 2°36.002 91.2 0.9 110.8 15.4
2001-12-17 09:25:02 51°9.323 2°36.027 121.3 1.8 144.1 15.9
2001-12-17 09:26:02 51°9.303 2°36.068 95.7 1.8 111.8 15.5
2001-12-17 09:27:02 51°9.297 2°36.109 91.7 1.5 104.7 15.3
2001-12-17 09:28:02 51°9.29 2°36.146 95.3 1.5 111.1 15.4
2001-12-17 09:29:02 51°9.283 2°36.177 88.2 1.1 101.5 15.5
2001-12-17 09:30:02 51°9.28 2°36.198 89 0.7 110.8 15.5
2001-12-17 09:31:02 51°9.274 2°36.213 98.5 0.7 128 15.4
2001-12-17 09:32:02 51°9.264 2°36.224 108.5 0.8 151.5 15.4
2001-12-17 09:33:01 51°9.251 2°36.231 116.3 0.8 164.9 15.4
2001-12-17 09:34:02 51°9.236 2°36.232 125.3 0.9 185.2 15.4
2001-12-17 09:35:02 51°9.22 2°36.226 132.2 0.9 195.1 15.4
2001-12-17 09:36:02 51°9.203 2°36.226 116.2 1.2 160.1 15.2
2001-12-17 09:37:02 51°9.194 2°36.246 77 0.9 91.7 15.2
2001-12-17 09:38:02 51°9.208 2°36.26 35.2 1.3 6.5 15.3
2001-12-17 09:39:02 51°9.238 2°36.248 9.2 2.1 339.2 15.5
2001-12-17 09:40:02 51°9.267 2°36.221 0.2 2 325.3 15.6
2001-12-17 09:41:02 51°9.291 2°36.188 356.2 1.8 316.4 15.5
2001-12-17 09:42:02 51°9.303 2°36.157 354.3 1.1 254.6 15.6
2001-12-17 09:43:02 51°9.318 2°36.137 21.5 3 355.8 15.7
2001-12-17 09:44:02 51°9.354 2°36.172 62.2 2.2 51.7 15.9
2001-12-17 09:45:02 51°9.363 2°36.213 82.5 1.3 87.8 15.9
2001-12-17 09:46:02 51°9.356 2°36.234 89.8 0.6 143.8 15.9
2001-12-17 09:47:02 51°9.349 2°36.24 92.2 0.5 160.2 15.7
2001-12-17 09:48:02 51°9.342 2°36.241 91.8 0.5 183.2 15.6
2001-12-17 09:49:02 51°9.332 2°36.238 94 0.6 196.3 15.5
2001-12-17 09:50:02 51°9.322 2°36.233 87.2 0.6 200.6 15.6
2001-12-17 09:51:02 51°9.314 2°36.225 81 0.6 214.6 15.6
2001-12-17 09:52:02 51°9.306 2°36.215 77.3 0.6 219.6 15.7
2001-12-17 09:53:02 51°9.298 2°36.202 70 0.7 229.6 15.7
2001-12-17 09:54:02 51°9.291 2°36.188 61 0.6 231.1 15.7
2001-12-17 09:55:02 51°9.285 2°36.176 56 0.5 239.8 15.8
2001-12-17 09:56:02 51°9.282 2°36.165 48.8 0.4 250.4 15.8
2001-12-17 09:57:02 51°9.282 2°36.154 46 0.3 283.4 15.8
2001-12-17 09:58:02 51°9.285 2°36.148 50.8 0.2 331.2 15.8
2001-12-17 09:59:02 51°9.29 2°36.147 51.5 0.3 0.2 15.8
2001-12-17 10:00:02 51°9.298 2°36.148 46.8 0.5 1.4 15.8
2001-12-17 10:01:02 51°9.305 2°36.15 48.5 0.4 17.9 15.7
2001-12-17 10:02:02 51°9.311 2°36.154 51.5 0.4 27.5 15.8
2001-12-17 10:03:02 51°9.317 2°36.159 52.7 0.4 38.4 16
2001-12-17 10:04:02 51°9.321 2°36.165 50.8 0.3 34.9 16
2001-12-17 10:05:02 51°9.327 2°36.169 48.8 0.4 23.2 15.7
2001-12-17 10:06:02 51°9.333 2°36.175 54.8 0.3 54.5 16
2001-12-17 10:07:02 51°9.333 2°36.185 70 0.5 118.7 16.1
2001-12-17 10:08:02 51°9.324 2°36.198 79.8 0.8 136.7 15.9
2001-12-17 10:09:02 51°9.318 2°36.212 70.7 0.5 120.2 15.7
2001-12-17 10:10:02 51°9.315 2°36.22 61.7 0.2 122.2 15.9
2001-12-17 10:11:02 51°9.314 2°36.222 54.7 0.1 201.3 15.9
2001-12-17 10:12:02 51°9.312 2°36.219 48.5 0.2 250.4 15.9
2001-12-17 10:13:02 51°9.311 2°36.213 42.2 0.3 246.4 15.6
2001-12-17 10:14:02 51°9.308 2°36.205 40.5 0.4 245 15.9
2001-12-17 10:15:02 51°9.305 2°36.195 38.7 0.5 245.6 15.9
2001-12-17 10:16:02 51°9.302 2°36.183 37.3 0.5 238.8 15.9
2001-12-17 10:17:02 51°9.296 2°36.171 39.8 0.6 235.2 15.9
2001-12-17 10:18:02 51°9.291 2°36.159 39.2 0.6 232 15.9
2001-12-17 10:19:02 51°9.285 2°36.147 39 0.6 236 16
2001-12-17 10:20:02 51°9.28 2°36.135 40 0.5 233.8 16
2001-12-17 10:21:02 51°9.274 2°36.127 48.8 0.4 217.1 16.1
2001-12-17 10:22:02 51°9.269 2°36.123 54.2 0.3 202.1 16.1
2001-12-17 10:23:02 51°9.265 2°36.122 57.8 0.3 178.1 16.1
2001-12-17 10:24:02 51°9.261 2°36.124 61.5 0.3 167 16.1
2001-12-17 10:25:02 51°9.264 2°36.136 49.3 2.2 47.4 16.2
2001-12-17 10:26:02 51°9.356 2°36.147 1.5 7.9 350.6 16.6
2001-12-17 10:27:02 51°9.545 2°36.11 1 12.5 353.3 17
2001-12-17 10:28:01 51°9.754 2°36.064 359.5 13.1 352.4 17.4
2001-12-17 10:29:02 51°9.974 2°36.007 358.8 13.3 350.2 18.1
2001-12-17 10:30:02 51°10.189 2°35.951 0.3 12.8 353 12
2001-12-17 10:31:02 51°10.396 2°35.967 18.5 12.5 12.9 10.8
2001-12-17 10:32:02 51°10.567 2°36.142 43.3 12.3 42.7 10.8
2001-12-17 10:33:02 51°10.717 2°36.362 44.5 12.3 43.9 11.1
2001-12-17 10:34:02 51°10.867 2°36.583 48 12.3 47.1 11.6
2001-12-17 10:35:02 51°10.997 2°36.836 55.3 12.3 54.3 12.2
2001-12-17 10:36:02 51°11.121 2°37.097 56.2 12.4 53.4 12.7
2001-12-17 10:37:02 51°11.24 2°37.366 55.8 12.5 54.1 12.7
2001-12-17 10:38:02 51°11.361 2°37.634 55.3 12.5 54.3 12.3
2001-12-17 10:39:02 51°11.481 2°37.902 54 12.4 52.7 12
2001-12-17 10:40:02 51°11.612 2°38.157 46.3 12.5 45.8 11.8
2001-12-17 10:41:02 51°11.77 2°38.368 34 12.4 34.1 12.2
2001-12-17 10:42:02 51°11.96 2°38.495 24.3 12.5 20.6 13.4
2001-12-17 10:43:02 51°12.154 2°38.609 23.5 12.4 18.3 13.7
2001-12-17 10:44:02 51°12.351 2°38.714 22.3 12.5 17.9 13.8
2001-12-17 10:45:02 51°12.547 2°38.818 19.7 12.4 16.1 13.7
2001-12-17 10:46:02 51°12.75 2°38.885 12.7 12.5 9.7 13.8
2001-12-17 10:47:02 51°12.938 2°39.011 29 12.3 26.9 13.7
2001-12-17 10:48:02 51°13.13 2°39.131 22.3 12.5 19.5 14.7
2001-12-17 10:49:02 51°13.332 2°39.218 20.2 12.6 15.4 15.3
2001-12-17 10:50:02 51°13.533 2°39.315 19.7 12.7 16 15.3
2001-12-17 10:51:02 51°13.734 2°39.41 19.2 12.6 16.7 14.4
2001-12-17 10:52:02 51°13.937 2°39.491 14.5 12.6 12.9 12.8
2001-12-17 10:53:02 51°14.142 2°39.573 16.8 12.7 15.6 14.1
2001-12-17 10:54:02 51°14.345 2°39.656 17.5 12.6 15.8 13.4
2001-12-17 10:55:03 51°14.555 2°39.726 15 12.6 10.9 14.1
2001-12-17 10:56:02 51°14.756 2°39.797 16.2 12.5 12.1 15.1
2001-12-17 10:57:02 51°14.959 2°39.862 14.2 12.4 10.6 14.5
2001-12-17 10:58:02 51°15.16 2°39.928 14.2 12.3 11.7 15.9
2001-12-17 10:59:02 51°15.361 2°39.993 15 12.3 11.8 17.5
2001-12-17 11:00:02 51°15.504 2°40.046 17.7 6 14.6 18.4
2001-12-17 11:01:02 51°15.571 2°40.067 9.8 3.4 3.7 18.7
2001-12-17 11:02:02 51°15.609 2°40.057 357 1.8 338.5 19
2001-12-17 11:03:02 51°15.629 2°40.033 346.2 1.5 314.7 19.3
2001-12-17 11:04:02 51°15.645 2°39.995 333.5 1.6 290.6 19.7
2001-12-17 11:05:02 51°15.643 2°39.956 324.8 1.4 248.3 19.9
2001-12-17 11:06:02 51°15.63 2°39.925 316 1.5 231.2 19.8
2001-12-17 11:07:02 51°15.61 2°39.897 302.8 1.6 219.5 20
2001-12-17 11:08:02 51°15.587 2°39.87 289.8 1.8 210.7 19.7
2001-12-17 11:09:02 51°15.559 2°39.846 275.7 1.9 205 19.6
2001-12-17 11:10:02 51°15.529 2°39.825 262.8 2 202.9 19.4
2001-12-17 11:11:02 51°15.498 2°39.804 259.3 2 204.5 19.6
2001-12-17 11:12:02 51°15.467 2°39.783 259.8 2.1 202.6 19.2
2001-12-17 11:13:02 51°15.435 2°39.76 261.2 2 203.6 19.2
2001-12-17 11:14:02 51°15.405 2°39.739 262.2 2.1 203.4 18.8
2001-12-17 11:15:02 51°15.375 2°39.718 265.5 1.9 201.9 19
2001-12-17 11:16:02 51°15.345 2°39.698 267.2 1.9 203.2 18.9
2001-12-17 11:17:02 51°15.317 2°39.659 277.5 3.7 245.2 19
2001-12-17 11:18:02 51°15.399 2°39.516 346 10.4 336.7 19.8
2001-12-17 11:19:02 51°15.593 2°39.493 5 12.1   20.6
2001-12-17 11:20:02 51°15.792 2°39.547 23.3 12.2 18.9 20.9
2001-12-17 11:21:02 51°15.986 2°39.644 20.3 12.3 15 21.4
2001-12-17 11:22:02 51°16.168 2°39.79 32.8 12.2 29.4 21.9
2001-12-17 11:23:02 51°16.346 2°39.95 32.8 12.2 29 22.2
2001-12-17 11:24:02 51°16.52 2°40.114 32.2 12.1 30.8 22.7
2001-12-17 11:25:02 51°16.695 2°40.28 32.3 12.2 31.3 23.2
2001-12-17 11:26:02 51°16.872 2°40.442 33.7 12.3 30.1 23.5
2001-12-17 11:27:02 51°17.049 2°40.603 33.5 12.3 29.5 23.7
2001-12-17 11:28:02 51°17.227 2°40.774 32.5 12.6 30.3 23.8
2001-12-17 11:29:02 51°17.408 2°40.944 32.3 12.7 30.4 24.1
2001-12-17 11:30:02 51°17.589 2°41.112 33.5 12.6 30 24
2001-12-17 11:31:02 51°17.769 2°41.282 34 12.6 30.9 24.4
2001-12-17 11:32:02 51°17.951 2°41.455 31.7 12.8 30.7 24.5
2001-12-17 11:33:02 51°18.135 2°41.627 33.7 12.7 31.1 24.6
2001-12-17 11:34:02 51°18.317 2°41.794 31.7 12.5 29.2 24.5
2001-12-17 11:35:02 51°18.498 2°41.968 32.2 12.7 30.2 24.8
2001-12-17 11:36:02 51°18.679 2°42.141 34.3 12.7 30.9 25
2001-12-17 11:37:02 51°18.862 2°42.31 34.5 12.8 30.1 25
2001-12-17 11:38:02 51°19.046 2°42.482 33.3 12.8 29.3 25
2001-12-17 11:39:02 51°19.229 2°42.652 31.2 12.8 29.9 25.5
2001-12-17 11:40:02 51°19.416 2°42.811 30 12.8 28.6 25.8
2001-12-17 11:41:02 51°19.606 2°42.969 32.2 12.9 27.5 27
2001-12-17 11:42:02 51°19.795 2°43.135 32.3 12.9 28.4 27.4
2001-12-17 11:43:02 51°19.986 2°43.298 29.3 13.1 28.3 27.9
2001-12-17 11:44:02 51°20.177 2°43.465 31.5 13.1 29.9 28.5
2001-12-17 11:45:02 51°20.367 2°43.632 32.2 13.1 29.5 28.7
2001-12-17 11:46:02 51°20.561 2°43.797 30.5 13.2 27.1 28.9
2001-12-17 11:47:02 51°20.753 2°43.965 31.8 13.2 30 28.7
2001-12-17 11:48:02 51°20.943 2°44.138 31.3 13.2 29.4 27.4
2001-12-17 11:49:02 51°21.136 2°44.304 30.2 13.1 28.7 26.6
2001-12-17 11:50:02 51°21.326 2°44.482 31 13.3 30.4 25.5
2001-12-17 11:51:02 51°21.519 2°44.649 32.2 13.1 28.1 24.3
2001-12-17 11:52:02 51°21.71 2°44.818 32 13.1 31 24.3
2001-12-17 11:53:02 51°21.9 2°44.992 29.2 13.1 29.3 24.4
2001-12-17 11:54:02 51°22.091 2°45.162 32.2 13.2 30.5 23.6
2001-12-17 11:55:02 51°22.281 2°45.335 30.8 13.1 27.5 25.2
2001-12-17 11:56:02 51°22.472 2°45.502 31.2 13 28.7 25.9
2001-12-17 11:57:02 51°22.661 2°45.675 29 13.1 28.6 27.1
2001-12-17 11:58:02 51°22.851 2°45.847 30.8 13 30.1 24.8
2001-12-17 11:59:02 51°23.041 2°46.019 32.8 13.2 30.9 26.4
2001-12-17 12:00:02 51°23.233 2°46.188 30.8 13.1 28.8 27.1
2001-12-17 12:01:02 51°23.424 2°46.355 30.2 13 29.3 26.8
2001-12-17 12:02:02 51°23.613 2°46.527 31.5 13.1 30 28.6
2001-12-17 12:03:01 51°23.801 2°46.689 31.3 13 28.1 28.9
2001-12-17 12:04:02 51°23.993 2°46.86 30.5 12.9 29.1 30.2
2001-12-17 12:05:02 51°24.18 2°47.029 31.3 12.6 30.4 28.7
2001-12-17 12:06:02 51°24.37 2°47.192 32.5 13.1 28.2 31.4
2001-12-17 12:07:02 51°24.562 2°47.365 29.2 13.2 28.3 32.9
2001-12-17 12:08:02 51°24.755 2°47.534 30.2 13.2 28 32.7
2001-12-17 12:09:02 51°24.951 2°47.694 28.3 13.2 25 31.4
2001-12-17 12:10:02 51°25.149 2°47.843 27.2 13.2 25.3 30.1
2001-12-17 12:11:02 51°25.344 2°48.003 27.3 13.2 26.5 29.7
2001-12-17 12:12:02 51°25.547 2°48.134 25 13.1 21.7 26.1
2001-12-17 12:13:02 51°25.75 2°48.267 25.2 13.2 21 25.5
2001-12-17 12:14:02 51°25.943 2°48.395 25.5 10.6 23.5 25.4
2001-12-17 12:15:02 51°26.023 2°48.467 42.5 2.4 40.4 25.3
2001-12-17 12:16:02 51°26.023 2°48.495 85.5 0.8 155.1 25
2001-12-17 12:17:03 51°26.008 2°48.494 131.5 0.9 176.4 -999
2001-12-17 12:18:03 51°25.993 2°48.501 135.5 1 161.9 26
2001-12-17 12:19:02 51°25.974 2°48.513 133 1.4 153.8 25.5
2001-12-17 12:20:02 51°25.955 2°48.531 122.5 1.1 158.6 26.1
2001-12-17 12:21:03 51°25.941 2°48.531 131.2 0.8 188.5 25.8
2001-12-17 12:22:02 51°25.92 2°48.563 105.5 2.8 117.2 26.4
2001-12-17 12:23:02 51°25.932 2°48.646 32.7 3.9 43.7 26.4
2001-12-17 12:24:02 51°25.975 2°48.635 316.2 2.1 309.9 26.4
2001-12-17 12:25:02 51°25.983 2°48.602 312.5 0.9 276.7 26.5
2001-12-17 12:26:02 51°25.983 2°48.587 320.5 0.4 256.1 26.3
2001-12-17 12:27:02 51°25.98 2°48.579 322.3 0.3 221.4 26.4
2001-12-17 12:28:02 51°25.971 2°48.576 314.2 0.6 185.9 26.2
2001-12-17 12:29:02 51°25.96 2°48.575 309.7 0.8 181.7 26.1
2001-12-17 12:30:02 51°25.946 2°48.583 300.2 0.9 156.4 26.5
2001-12-17 12:31:02 51°25.933 2°48.593 296 0.8 152.2 26.7
2001-12-17 12:32:02 51°25.921 2°48.6 293.8 0.8 160.8 26.6
2001-12-17 12:33:02 51°25.908 2°48.606 293.2 0.8 165.6 26.5
2001-12-17 12:34:02 51°25.896 2°48.611 295.8 0.6 166 26.8
2001-12-17 12:35:02 51°25.886 2°48.615 299.8 0.6 170.2 26.6
2001-12-17 12:36:02 51°25.877 2°48.619 302.5 0.7 169.9 26.7
2001-12-17 12:37:02 51°25.867 2°48.626 298.2 0.6 156.2 26.7
2001-12-17 12:38:02 51°25.857 2°48.634 298.5 0.6 146.9 26.8
2001-12-17 12:39:02 51°25.849 2°48.641 300.7 0.5 150.2 26.7
2001-12-17 12:40:02 51°25.841 2°48.647 299.8 0.5 144.1 26.8
2001-12-17 12:41:02 51°25.833 2°48.654 300.8 0.5 152.6 26.6
2001-12-17 12:42:02 51°25.826 2°48.664 301.3 0.6 135.3 26.4
2001-12-17 12:43:02 51°25.818 2°48.673 295.3 0.4 245.2 26.9
2001-12-17 12:44:02 51°25.768 2°48.565 210.3 8.2 206.7 27
2001-12-17 12:45:02 51°25.568 2°48.573 174.8 13.4 168.7 26.9
2001-12-17 12:46:02 51°25.347 2°48.655 173 13.8 166.8 31.2
2001-12-17 12:47:02 51°25.128 2°48.733 175.5 13.3 166.6 28.8
2001-12-17 12:48:02 51°24.908 2°48.817 175 13.7 167.5 26.4
2001-12-17 12:49:02 51°24.686 2°48.894 174.8 13.6 167.3 24.5
2001-12-17 12:50:02 51°24.466 2°48.981 174 13.7 167.2 24.4
2001-12-17 12:51:02 51°24.243 2°49.061 174.8 13.9 168.8 25.7
2001-12-17 12:52:02 51°24.024 2°49.138 174.3 13.2 166.7 25.4
2001-12-17 12:53:02 51°23.803 2°49.219 173.5 13.7 165.6 25.4
2001-12-17 12:54:02 51°23.585 2°49.3 177.3 13.3 170.7 25.1
2001-12-17 12:55:02 51°23.367 2°49.364 175.8 13.4 167.8 22.2
2001-12-17 12:56:02 51°23.146 2°49.432 176.2 13 168.6 18.8
2001-12-17 12:57:02 51°22.93 2°49.498 176.8 12.9 168.6 17.7
2001-12-17 12:58:02 51°22.71 2°49.589 172.5 14 166.4 18.7
2001-12-17 12:59:02 51°22.49 2°49.674 175 13.4 166 24.7
2001-12-17 13:00:02 51°22.27 2°49.766 170.2 13.6 163.4 25.8
2001-12-17 13:01:02 51°22.058 2°49.875 172.2 13.5 163.3 26.3
2001-12-17 13:02:02 51°21.844 2°49.98 170.8 13.4 163.8 25.6
2001-12-17 13:03:02 51°21.633 2°50.092 169.2 13.3 160.5 25.1
2001-12-17 13:04:02 51°21.418 2°50.195 172.2 13.6 163.5 26
2001-12-17 13:05:02 51°21.204 2°50.311 170.5 13.7 161 26.4
2001-12-17 13:06:02 51°20.991 2°50.42 171.3 13.6 163.9 26.2
2001-12-17 13:07:02 51°20.772 2°50.526 170.8 13.9 162.9 24.3
2001-12-17 13:08:02 51°20.556 2°50.626 171 13.3 163.6 21.4
2001-12-17 13:09:02 51°20.344 2°50.733 171.8 13.3 165.3 18.9
2001-12-17 13:10:02 51°20.133 2°50.832 173.7 13.5 165.3 16.7
2001-12-17 13:11:02 51°19.915 2°50.937 170.8 13.4 162.8 15.7
2001-12-17 13:12:02 51°19.696 2°51.042 170.3 13.8 163 15.7
2001-12-17 13:13:02 51°19.478 2°51.145 170.5 13.7 163.3 18
2001-12-17 13:14:02 51°19.263 2°51.248 172.5 13.1 165.1 18.3
2001-12-17 13:15:02 51°19.05 2°51.358 170.5 13.5 162.2 17.5
2001-12-17 13:16:02 51°18.844 2°51.462 173.2 12.9 165.2 17.5
2001-12-17 13:17:02 51°18.635 2°51.562 168.7 13.3 160.5 16.7
2001-12-17 13:18:02 51°18.424 2°51.671 169.2 13 161.7 15.5
2001-12-17 13:19:02 51°18.215 2°51.766 173.7 13.2 165.8 14.4
2001-12-17 13:20:02 51°18.003 2°51.868 170.3 13.5 162.6 13.7
2001-12-17 13:21:02 51°17.794 2°51.967 171.3 13.1 164 13.5
2001-12-17 13:22:02 51°17.585 2°52.07 170.5 13 163.1 13.6
2001-12-17 13:23:02 51°17.377 2°52.189 163.8 13.2 155.6 13.5
2001-12-17 13:24:02 51°17.173 2°52.335 163 13.4 155.7 13.3
2001-12-17 13:25:02 51°16.974 2°52.502 158.7 13.4 150.6 12.7
2001-12-17 13:26:02 51°16.776 2°52.678 159.3 13.7 151.4 12.7
2001-12-17 13:27:02 51°16.578 2°52.861 157.2 14.1 148.5 14.7
2001-12-17 13:28:02 51°16.385 2°53.045 159.2 13.4 147.9 15.1
2001-12-17 13:29:02 51°16.192 2°53.237 159.3 13.8 148.2 15.3
2001-12-17 13:30:02 51°16 2°53.422 158.3 13.4 147.9 15
2001-12-17 13:31:02 51°15.806 2°53.605 156.8 13.9 147.8 14.4
2001-12-17 13:32:02 51°15.612 2°53.784 158.8 13.4 150.1 13.6
2001-12-17 13:33:02 51°15.416 2°53.963 159 13.6 150.1 12.8
2001-12-17 13:34:02 51°15.222 2°54.138 159.5 13.3 151.1 12
2001-12-17 13:35:02 51°15.027 2°54.317 157.7 13.5 150.3 11.3
2001-12-17 13:36:02 51°14.837 2°54.508 157.3 13.6 146 12.3
2001-12-17 13:37:02 51°14.653 2°54.71 158.5 13.2 148.1 12.4
2001-12-17 13:38:03 51°14.475 2°54.918 147.7 13.3 139.3 12.7
2001-12-17 13:39:02 51°14.316 2°55.167 132.3 13.3 131.6 13.4
2001-12-17 13:40:02 51°14.163 2°55.377 151.7 10.5 148.6 13.2
2001-12-17 13:41:02 51°14.03 2°55.482 157.5 8 155.9 13.4
2001-12-17 13:42:02 51°13.915 2°55.565 157 7.4 154.7 13.4
2001-12-17 13:43:02 51°13.824 2°55.631 154.5 5 153.4 13.4
2001-12-17 13:44:02 51°13.766 2°55.691 141.8 3.7 141.7 13.1
2001-12-17 13:45:02 51°13.73 2°55.754 127.5 3 126.9 13.8
2001-12-17 13:46:02 51°13.706 2°55.816 116 2.6 115 12.8
2001-12-17 13:47:02 51°13.694 2°55.876 106.2 2.1 104.3 11.8
2001-12-17 13:48:02 51°13.685 2°55.909 128.7 0.2 162 10.5
2001-12-17 13:49:03 51°13.686 2°55.901 133.8 0.3 280.5 -999
2001-12-17 13:50:06 51°13.684 2°55.904 132.2 0.5 96.7 -999